Williams, AZ

1:23 AM MST on August 30, 2015 (GMT -0700)
Williams | | Change Station
CLOSE
Current Station
Airport
Location: Williams,
Elevation: 6680 ft
Nearby Weather Stations

Elev 6680 ft 35.31 °N, 112.19 °W | Updated 8 minutes ago

Partly Cloudy
Partly Cloudy
57 °F
Feels Like 57 °F
N
10
Wind Variable Wind from SSE

Today
High -- | Low -- °F
--% Chance of Precip.
Yesterday
High -- | Low -- °F
Precip. -- in
5:59 AM 6:58 PM
Full, 100% visible
Pressure 30.32 in
Visibility 10.0 miles
Clouds Few 5500 ft
Dew Point 50 °F
Humidity 77%
Rainfall 0.00 in
Snow Depth Not available.
UV 0 out of 12
Pollen 5.30 out of 12
Air Quality Not available.
Flu Activity Not available.
METAR KCMR 300815Z AUTO 16009KT 10SM FEW055 14/10 A3032 RMK AO2
Pressure 30.32 in
Visibility 10.0 miles
Clouds Few 5500 ft
Dew Point 50 °F
Humidity 77%
Rainfall 0.00 in
Snow Depth Not available.
UV 0 out of 12
Pollen 5.30 out of 12
Air Quality Not available.
Flu Activity Not available.
METAR KCMR 300815Z AUTO 16009KT 10SM FEW055 14/10 A3032 RMK AO2

10-Day Weather Forecast

×

Almanac

Astronomy

Aug. 30, 2015 Rise Set
Actual Time
Civil Twilight
Nautical Twilight
Astronomical Twilight
Moon
Length of Visible Light
Length of Day
Tomorrow will be .
, % of the Moon is Illuminated

Today's Extremes

State Highs State Lows

Community

WunderPhotos

Upload Photos

1,850,909 photos uploaded!

WunderBlogs® & News

Nearby

Air Quality

  Air Quality AQ Index Pollutant
Not available.

Snow Depth

Station Depth Elevation

Earthquake Activity

City Distance Mag. Time & Date
Minimum magnitude displayed is 2.5.

Coastal Water Temperatures

Place Temperature

Stations

Nearby Weather Stations

Station Location Temp. Windchill Dew Point Humidity Wind Precip. Elev Updated Type